sensor_id;sensor_type;location;lat;lon;timestamp;pressure;altitude;pressure_sealevel;temperature;humidity
21129;BME280;10722;51.910;8.352;2023-06-14T00:02:25;100602.22;;;19.24;47.45
21129;BME280;10722;51.910;8.352;2023-06-14T00:05:10;100600.47;;;19.26;47.18
21129;BME280;10722;51.910;8.352;2023-06-14T00:07:55;100603.44;;;19.08;47.97
21129;BME280;10722;51.910;8.352;2023-06-14T00:10:41;100608.66;;;19.08;47.72
21129;BME280;10722;51.910;8.352;2023-06-14T00:13:27;100615.06;;;18.93;48.39
21129;BME280;10722;51.910;8.352;2023-06-14T00:16:12;100624.78;;;18.90;48.67
21129;BME280;10722;51.910;8.352;2023-06-14T00:18:58;100618.78;;;18.81;48.36
21129;BME280;10722;51.910;8.352;2023-06-14T00:21:43;100624.84;;;18.84;48.39
21129;BME280;10722;51.910;8.352;2023-06-14T00:24:28;100640.63;;;18.80;49.03
21129;BME280;10722;51.910;8.352;2023-06-14T00:27:14;100653.78;;;18.79;48.79
21129;BME280;10722;51.910;8.352;2023-06-14T00:29:59;100648.63;;;18.73;48.92
21129;BME280;10722;51.910;8.352;2023-06-14T00:32:45;100646.00;;;18.74;49.07
21129;BME280;10722;51.910;8.352;2023-06-14T00:35:31;100654.03;;;18.62;49.36
21129;BME280;10722;51.910;8.352;2023-06-14T00:38:16;100654.16;;;18.56;49.44
21129;BME280;10722;51.910;8.352;2023-06-14T00:41:01;100654.28;;;18.47;49.50
21129;BME280;10722;51.910;8.352;2023-06-14T00:43:47;100650.13;;;18.33;49.74
21129;BME280;10722;51.910;8.352;2023-06-14T00:46:32;100667.41;;;18.44;50.34
21129;BME280;10722;51.910;8.352;2023-06-14T00:49:18;100662.13;;;18.47;49.99
21129;BME280;10722;51.910;8.352;2023-06-14T00:52:04;100671.81;;;18.43;50.21
21129;BME280;10722;51.910;8.352;2023-06-14T00:54:50;100677.00;;;18.46;50.15
21129;BME280;10722;51.910;8.352;2023-06-14T00:57:35;100675.38;;;18.39;50.55
21129;BME280;10722;51.910;8.352;2023-06-14T01:00:21;100671.09;;;18.33;50.31
21129;BME280;10722;51.910;8.352;2023-06-14T01:03:07;100681.47;;;18.40;50.41
21129;BME280;10722;51.910;8.352;2023-06-14T01:05:59;100677.84;;;18.47;50.24
21129;BME280;10722;51.910;8.352;2023-06-14T01:08:51;100688.56;;;18.31;50.71
21129;BME280;10722;51.910;8.352;2023-06-14T01:11:50;100676.34;;;18.32;50.54
21129;BME280;10722;51.910;8.352;2023-06-14T01:14:39;100688.56;;;18.31;50.95
21129;BME280;10722;51.910;8.352;2023-06-14T01:17:26;100696.44;;;18.33;50.99
21129;BME280;10722;51.910;8.352;2023-06-14T01:20:12;100700.78;;;18.32;51.30
21129;BME280;10722;51.910;8.352;2023-06-14T01:22:58;100693.06;;;18.25;50.93
21129;BME280;10722;51.910;8.352;2023-06-14T01:25:44;100691.19;;;18.30;50.86
21129;BME280;10722;51.910;8.352;2023-06-14T01:28:31;100710.38;;;18.32;51.46
21129;BME280;10722;51.910;8.352;2023-06-14T01:31:19;100703.47;;;18.26;51.17
21129;BME280;10722;51.910;8.352;2023-06-14T01:34:05;100704.19;;;18.37;51.03
21129;BME280;10722;51.910;8.352;2023-06-14T01:36:52;100706.81;;;18.37;51.07
21129;BME280;10722;51.910;8.352;2023-06-14T01:39:38;100704.38;;;18.25;51.55
21129;BME280;10722;51.910;8.352;2023-06-14T01:42:24;100708.72;;;18.26;51.69
21129;BME280;10722;51.910;8.352;2023-06-14T01:45:09;100708.78;;;18.23;51.83
21129;BME280;10722;51.910;8.352;2023-06-14T01:47:55;100716.09;;;17.98;52.24
21129;BME280;10722;51.910;8.352;2023-06-14T01:50:40;100724.97;;;17.88;52.58
21129;BME280;10722;51.910;8.352;2023-06-14T01:53:26;100721.44;;;17.89;52.58
21129;BME280;10722;51.910;8.352;2023-06-14T01:56:11;100721.63;;;17.70;52.51
21129;BME280;10722;51.910;8.352;2023-06-14T01:58:57;100734.75;;;17.67;53.04
21129;BME280;10722;51.910;8.352;2023-06-14T02:01:42;100736.72;;;17.47;53.55
21129;BME280;10722;51.910;8.352;2023-06-14T02:04:27;100736.69;;;17.52;53.47
21129;BME280;10722;51.910;8.352;2023-06-14T02:07:13;100735.03;;;17.41;53.73
21129;BME280;10722;51.910;8.352;2023-06-14T02:09:59;100753.34;;;17.40;54.38
21129;BME280;10722;51.910;8.352;2023-06-14T02:12:44;100749.88;;;17.41;54.41
21129;BME280;10722;51.910;8.352;2023-06-14T02:15:29;100755.97;;;17.41;54.49
21129;BME280;10722;51.910;8.352;2023-06-14T02:18:15;100749.06;;;17.33;54.49
21129;BME280;10722;51.910;8.352;2023-06-14T02:21:00;100758.66;;;17.34;54.51
21129;BME280;10722;51.910;8.352;2023-06-14T02:23:45;100759.63;;;17.22;55.05
21129;BME280;10722;51.910;8.352;2023-06-14T02:26:31;100755.09;;;17.39;54.52
21129;BME280;10722;51.910;8.352;2023-06-14T02:29:16;100740.47;;;17.20;54.66
21129;BME280;10722;51.910;8.352;2023-06-14T02:32:02;100759.66;;;17.19;55.61
21129;BME280;10722;51.910;8.352;2023-06-14T02:34:48;100758.97;;;16.97;55.41
21129;BME280;10722;51.910;8.352;2023-06-14T02:37:34;100759.78;;;17.07;55.43
21129;BME280;10722;51.910;8.352;2023-06-14T02:40:19;100761.66;;;16.91;55.73
21129;BME280;10722;51.910;8.352;2023-06-14T02:43:04;100765.16;;;16.88;55.82
21129;BME280;10722;51.910;8.352;2023-06-14T02:45:50;100773.00;;;16.90;56.06
21129;BME280;10722;51.910;8.352;2023-06-14T02:48:35;100768.66;;;16.87;55.96
21129;BME280;10722;51.910;8.352;2023-06-14T02:51:21;100772.13;;;16.86;56.36
21129;BME280;10722;51.910;8.352;2023-06-14T02:54:06;100769.59;;;16.77;56.38
21129;BME280;10722;51.910;8.352;2023-06-14T02:56:52;100775.72;;;16.64;56.80
21129;BME280;10722;51.910;8.352;2023-06-14T02:59:39;100773.22;;;16.53;57.00
21129;BME280;10722;51.910;8.352;2023-06-14T03:02:24;100794.16;;;16.38;57.69
21129;BME280;10722;51.910;8.352;2023-06-14T03:05:09;100790.69;;;16.39;57.68
21129;BME280;10722;51.910;8.352;2023-06-14T03:07:55;100793.31;;;16.34;57.95
21129;BME280;10722;51.910;8.352;2023-06-14T03:10:40;100802.03;;;16.33;57.94
21129;BME280;10722;51.910;8.352;2023-06-14T03:13:25;100805.56;;;16.23;58.26
21129;BME280;10722;51.910;8.352;2023-06-14T03:16:11;100809.06;;;16.25;58.28
21129;BME280;10722;51.910;8.352;2023-06-14T03:18:56;100817.78;;;16.19;58.71
21129;BME280;10722;51.910;8.352;2023-06-14T03:21:41;100823.00;;;16.11;58.74
21129;BME280;10722;51.910;8.352;2023-06-14T03:24:26;100822.94;;;16.27;58.80
21129;BME280;10722;51.910;8.352;2023-06-14T03:27:12;100829.09;;;16.13;58.95
21129;BME280;10722;51.910;8.352;2023-06-14T03:29:57;100830.88;;;16.05;59.33
21129;BME280;10722;51.910;8.352;2023-06-14T03:32:42;100833.50;;;15.98;59.77
21129;BME280;10722;51.910;8.352;2023-06-14T03:35:28;100838.63;;;16.21;59.51
21129;BME280;10722;51.910;8.352;2023-06-14T03:38:14;100843.03;;;16.11;59.59
21129;BME280;10722;51.910;8.352;2023-06-14T03:40:59;100851.78;;;15.95;60.12
21129;BME280;10722;51.910;8.352;2023-06-14T03:43:44;100860.44;;;16.01;60.49
21129;BME280;10722;51.910;8.352;2023-06-14T03:46:29;100863.06;;;15.92;60.66
21129;BME280;10722;51.910;8.352;2023-06-14T03:49:14;100860.50;;;15.83;60.60
21129;BME280;10722;51.910;8.352;2023-06-14T03:51:59;100866.56;;;15.85;61.11
21129;BME280;10722;51.910;8.352;2023-06-14T03:54:45;100863.09;;;15.84;61.03
21129;BME280;10722;51.910;8.352;2023-06-14T03:57:33;100867.44;;;15.87;61.21
21129;BME280;10722;51.910;8.352;2023-06-14T04:00:18;100875.19;;;16.10;60.60
21129;BME280;10722;51.910;8.352;2023-06-14T04:03:03;100867.34;;;16.16;60.82
21129;BME280;10722;51.910;8.352;2023-06-14T04:05:49;100876.03;;;16.24;60.48
21129;BME280;10722;51.910;8.352;2023-06-14T04:08:34;100883.91;;;16.13;60.67
21129;BME280;10722;51.910;8.352;2023-06-14T04:11:19;100887.41;;;16.11;60.87
21129;BME280;10722;51.910;8.352;2023-06-14T04:14:05;100889.09;;;16.20;60.92
21129;BME280;10722;51.910;8.352;2023-06-14T04:16:50;100890.81;;;16.24;60.90
21129;BME280;10722;51.910;8.352;2023-06-14T04:19:35;100896.94;;;16.17;60.87
21129;BME280;10722;51.910;8.352;2023-06-14T04:22:21;100899.50;;;16.35;60.65
21129;BME280;10722;51.910;8.352;2023-06-14T04:25:07;100902.03;;;16.55;60.32
21129;BME280;10722;51.910;8.352;2023-06-14T04:27:52;100909.91;;;16.50;60.50
21129;BME280;10722;51.910;8.352;2023-06-14T04:30:38;100896.75;;;16.66;59.99
21129;BME280;10722;51.910;8.352;2023-06-14T04:33:23;100891.56;;;16.63;59.87
21129;BME280;10722;51.910;8.352;2023-06-14T04:36:10;100899.34;;;16.72;59.66
21129;BME280;10722;51.910;8.352;2023-06-14T04:38:55;100904.56;;;16.69;59.88
21129;BME280;10722;51.910;8.352;2023-06-14T04:41:40;100904.59;;;16.70;59.50
21129;BME280;10722;51.910;8.352;2023-06-14T04:44:26;100911.53;;;16.79;59.59
21129;BME280;10722;51.910;8.352;2023-06-14T04:47:11;100920.22;;;16.78;59.67
21129;BME280;10722;51.910;8.352;2023-06-14T04:49:57;100911.44;;;16.96;59.50
21129;BME280;10722;51.910;8.352;2023-06-14T04:52:42;100916.59;;;17.08;59.33
21129;BME280;10722;51.910;8.352;2023-06-14T04:55:28;100912.22;;;17.10;58.90
21129;BME280;10722;51.910;8.352;2023-06-14T04:58:13;100909.66;;;17.02;58.81
21129;BME280;10722;51.910;8.352;2023-06-14T05:01:01;100904.38;;;17.13;58.81
21129;BME280;10722;51.910;8.352;2023-06-14T05:03:47;100902.66;;;17.08;58.69
21129;BME280;10722;51.910;8.352;2023-06-14T05:06:32;100913.94;;;17.11;59.06
21129;BME280;10722;51.910;8.352;2023-06-14T05:09:17;100900.00;;;17.14;58.88
21129;BME280;10722;51.910;8.352;2023-06-14T05:12:03;100902.63;;;17.14;58.86
21129;BME280;10722;51.910;8.352;2023-06-14T05:14:48;100911.19;;;17.37;58.92
21129;BME280;10722;51.910;8.352;2023-06-14T05:17:33;100916.34;;;17.46;58.93
21129;BME280;10722;51.910;8.352;2023-06-14T05:20:19;100904.94;;;17.51;58.67
21129;BME280;10722;51.910;8.352;2023-06-14T05:23:04;100918.94;;;17.46;58.77
21129;BME280;10722;51.910;8.352;2023-06-14T05:25:49;100920.50;;;17.67;58.51
21129;BME280;10722;51.910;8.352;2023-06-14T05:28:35;100915.19;;;17.83;58.22
21129;BME280;10722;51.910;8.352;2023-06-14T05:31:20;100921.19;;;17.92;58.18
21129;BME280;10722;51.910;8.352;2023-06-14T05:34:06;100916.94;;;17.81;57.95
21129;BME280;10722;51.910;8.352;2023-06-14T05:36:51;100921.34;;;17.74;58.10
21129;BME280;10722;51.910;8.352;2023-06-14T05:39:37;100920.50;;;17.69;58.12
21129;BME280;10722;51.910;8.352;2023-06-14T05:42:22;100920.34;;;17.87;58.25
21129;BME280;10722;51.910;8.352;2023-06-14T05:45:07;100925.53;;;17.97;58.19
21129;BME280;10722;51.910;8.352;2023-06-14T05:47:53;100920.34;;;17.89;57.93
21129;BME280;10722;51.910;8.352;2023-06-14T05:50:38;100928.94;;;18.02;57.78
21129;BME280;10722;51.910;8.352;2023-06-14T05:53:24;100921.16;;;17.96;57.62
21129;BME280;10722;51.910;8.352;2023-06-14T05:56:09;100941.09;;;18.10;58.15
21129;BME280;10722;51.910;8.352;2023-06-14T05:58:54;100958.44;;;18.22;58.22
21129;BME280;10722;51.910;8.352;2023-06-14T06:01:40;100947.03;;;18.26;57.52
21129;BME280;10722;51.910;8.352;2023-06-14T06:04:25;100941.81;;;18.23;56.94
21129;BME280;10722;51.910;8.352;2023-06-14T06:07:10;100931.63;;;17.97;57.54
21129;BME280;10722;51.910;8.352;2023-06-14T06:09:56;100945.38;;;18.18;57.80
21129;BME280;10722;51.910;8.352;2023-06-14T06:12:42;100949.81;;;18.11;57.79
21129;BME280;10722;51.910;8.352;2023-06-14T06:15:27;100943.69;;;18.12;58.37
21129;BME280;10722;51.910;8.352;2023-06-14T06:18:13;100946.09;;;18.33;57.58
21129;BME280;10722;51.910;8.352;2023-06-14T06:20:58;100943.31;;;18.47;56.86
21129;BME280;10722;51.910;8.352;2023-06-14T06:23:43;100931.09;;;18.46;56.19
21129;BME280;10722;51.910;8.352;2023-06-14T06:26:29;100928.44;;;18.51;55.97
21129;BME280;10722;51.910;8.352;2023-06-14T06:29:15;100913.88;;;18.25;55.90
21129;BME280;10722;51.910;8.352;2023-06-14T06:32:00;100929.44;;;18.39;55.99
21129;BME280;10722;51.910;8.352;2023-06-14T06:34:46;100924.09;;;18.47;55.53
21129;BME280;10722;51.910;8.352;2023-06-14T06:37:31;100914.44;;;18.52;55.47
21129;BME280;10722;51.910;8.352;2023-06-14T06:40:17;100920.66;;;18.45;54.91
21129;BME280;10722;51.910;8.352;2023-06-14T06:43:02;100899.00;;;18.30;54.59
21129;BME280;10722;51.910;8.352;2023-06-14T06:45:48;100910.00;;;18.57;54.78
21129;BME280;10722;51.910;8.352;2023-06-14T06:48:33;100928.72;;;18.99;54.66
21129;BME280;10722;51.910;8.352;2023-06-14T06:51:19;100903.09;;;19.18;53.14
21129;BME280;10722;51.910;8.352;2023-06-14T06:54:04;100889.03;;;19.22;51.56
21129;BME280;10722;51.910;8.352;2023-06-14T06:56:49;100879.34;;;19.27;51.43
21129;BME280;10722;51.910;8.352;2023-06-14T06:59:35;100883.81;;;19.20;51.30
21129;BME280;10722;51.910;8.352;2023-06-14T07:02:20;100888.88;;;19.33;51.40
21129;BME280;10722;51.910;8.352;2023-06-14T07:05:06;100880.13;;;19.32;50.73
21129;BME280;10722;51.910;8.352;2023-06-14T07:07:51;100869.75;;;19.24;51.10
21129;BME280;10722;51.910;8.352;2023-06-14T07:10:36;100889.78;;;19.32;51.70
21129;BME280;10722;51.910;8.352;2023-06-14T07:13:21;100895.78;;;19.38;51.73
21129;BME280;10722;51.910;8.352;2023-06-14T07:16:07;100892.56;;;19.21;51.53
21129;BME280;10722;51.910;8.352;2023-06-14T07:22:40;100906.13;;;19.47;51.55
21129;BME280;10722;51.910;8.352;2023-06-14T07:25:26;100900.59;;;19.64;51.46
21129;BME280;10722;51.910;8.352;2023-06-14T07:28:11;100903.41;;;19.52;51.64
21129;BME280;10722;51.910;8.352;2023-06-14T07:30:56;100912.31;;;19.42;51.80
21129;BME280;10722;51.910;8.352;2023-06-14T07:33:42;100919.22;;;19.49;52.04
21129;BME280;10722;51.910;8.352;2023-06-14T07:36:27;100914.56;;;19.65;51.58
21129;BME280;10722;51.910;8.352;2023-06-14T07:39:12;100909.03;;;19.83;50.98
21129;BME280;10722;51.910;8.352;2023-06-14T07:41:58;100921.50;;;20.19;50.94
21129;BME280;10722;51.910;8.352;2023-06-14T07:44:43;100940.16;;;20.51;51.30
21129;BME280;10722;51.910;8.352;2023-06-14T07:47:29;100934.50;;;20.26;51.07
21129;BME280;10722;51.910;8.352;2023-06-14T07:50:14;100923.50;;;20.06;51.33
21129;BME280;10722;51.910;8.352;2023-06-14T07:52:59;100919.31;;;19.96;50.99
21129;BME280;10722;51.910;8.352;2023-06-14T07:55:45;100922.09;;;20.34;50.93
21129;BME280;10722;51.910;8.352;2023-06-14T07:58:38;100913.56;;;20.23;49.99
21129;BME280;10722;51.910;8.352;2023-06-14T08:01:23;100911.72;;;20.28;50.13
21129;BME280;10722;51.910;8.352;2023-06-14T08:04:09;100932.44;;;20.87;50.69
21129;BME280;10722;51.910;8.352;2023-06-14T08:06:54;100906.91;;;20.91;49.65
21129;BME280;10722;51.910;8.352;2023-06-14T08:09:39;100901.53;;;20.97;48.72
21129;BME280;10722;51.910;8.352;2023-06-14T08:12:24;100902.59;;;20.88;48.91
21129;BME280;10722;51.910;8.352;2023-06-14T08:15:10;100919.59;;;21.12;49.74
21129;BME280;10722;51.910;8.352;2023-06-14T08:17:59;100917.59;;;21.22;50.03
21129;BME280;10722;51.910;8.352;2023-06-14T08:20:44;100908.00;;;21.21;49.22
21129;BME280;10722;51.910;8.352;2023-06-14T08:23:29;100914.38;;;21.48;48.93
21129;BME280;10722;51.910;8.352;2023-06-14T08:26:15;100887.31;;;21.43;48.26
21129;BME280;10722;51.910;8.352;2023-06-14T08:29:00;100891.44;;;21.16;48.51
21129;BME280;10722;51.910;8.352;2023-06-14T08:31:46;100908.00;;;21.21;49.64
21129;BME280;10722;51.910;8.352;2023-06-14T08:34:31;100912.81;;;21.75;49.12
21129;BME280;10722;51.910;8.352;2023-06-14T08:37:17;100886.91;;;21.60;48.24
21129;BME280;10722;51.910;8.352;2023-06-14T08:40:02;100886.03;;;21.22;48.11
21129;BME280;10722;51.910;8.352;2023-06-14T08:42:52;100901.50;;;21.34;48.77
21129;BME280;10722;51.910;8.352;2023-06-14T08:45:38;100904.34;;;21.26;48.28
21129;BME280;10722;51.910;8.352;2023-06-14T08:48:26;100911.16;;;21.35;48.86
21129;BME280;10722;51.910;8.352;2023-06-14T08:51:12;100916.97;;;21.49;49.04
21129;BME280;10722;51.910;8.352;2023-06-14T08:53:58;100917.69;;;21.90;49.02
21129;BME280;10722;51.910;8.352;2023-06-14T08:56:44;100894.69;;;21.27;47.83
21129;BME280;10722;51.910;8.352;2023-06-14T08:59:29;100899.06;;;21.64;48.01
21129;BME280;10722;51.910;8.352;2023-06-14T09:02:15;100883.34;;;21.61;46.65
21129;BME280;10722;51.910;8.352;2023-06-14T09:05:01;100892.00;;;21.66;47.00
21129;BME280;10722;51.910;8.352;2023-06-14T09:07:46;100890.81;;;21.78;47.36
21129;BME280;10722;51.910;8.352;2023-06-14T09:10:32;100894.41;;;21.00;47.89
21129;BME280;10722;51.910;8.352;2023-06-14T09:13:17;100916.94;;;21.51;48.56
21129;BME280;10722;51.910;8.352;2023-06-14T09:16:03;100934.03;;;22.03;49.11
21129;BME280;10722;51.910;8.352;2023-06-14T09:18:49;100899.94;;;22.30;46.82
21129;BME280;10722;51.910;8.352;2023-06-14T09:21:35;100892.94;;;22.30;46.50
21129;BME280;10722;51.910;8.352;2023-06-14T09:24:20;100905.13;;;22.64;46.60
21129;BME280;10722;51.910;8.352;2023-06-14T09:27:05;100904.19;;;23.24;45.74
21129;BME280;10722;51.910;8.352;2023-06-14T09:29:51;100898.13;;;22.93;45.53
21129;BME280;10722;51.910;8.352;2023-06-14T09:32:38;100894.75;;;22.88;45.63
21129;BME280;10722;51.910;8.352;2023-06-14T09:35:24;100891.34;;;22.84;45.98
21129;BME280;10722;51.910;8.352;2023-06-14T09:38:09;100911.13;;;23.27;46.23
21129;BME280;10722;51.910;8.352;2023-06-14T09:40:58;100906.34;;;23.40;45.23
21129;BME280;10722;51.910;8.352;2023-06-14T09:43:46;100871.03;;;22.86;44.47
21129;BME280;10722;51.910;8.352;2023-06-14T09:46:32;100885.59;;;23.27;45.05
21129;BME280;10722;51.910;8.352;2023-06-14T09:49:18;100883.38;;;23.68;44.07
21129;BME280;10722;51.910;8.352;2023-06-14T09:52:04;100902.75;;;23.94;45.30
21129;BME280;10722;51.910;8.352;2023-06-14T09:54:50;100891.53;;;23.61;45.16
21129;BME280;10722;51.910;8.352;2023-06-14T09:57:35;100875.72;;;23.34;44.06
21129;BME280;10722;51.910;8.352;2023-06-14T10:00:21;100872.38;;;22.71;44.92
21129;BME280;10722;51.910;8.352;2023-06-14T10:03:13;100894.28;;;23.03;45.74
21129;BME280;10722;51.910;8.352;2023-06-14T10:06:02;100882.56;;;23.40;44.21
21129;BME280;10722;51.910;8.352;2023-06-14T10:08:49;100897.03;;;24.06;44.22
21129;BME280;10722;51.910;8.352;2023-06-14T10:11:35;100864.25;;;23.87;43.38
21129;BME280;10722;51.910;8.352;2023-06-14T10:14:21;100864.69;;;24.23;43.01
21129;BME280;10722;51.910;8.352;2023-06-14T10:17:10;100836.69;;;23.42;43.20
21129;BME280;10722;51.910;8.352;2023-06-14T10:22:58;100837.03;;;23.58;42.59
21129;BME280;10722;51.910;8.352;2023-06-14T10:25:44;100852.56;;;23.67;43.24
21129;BME280;10722;51.910;8.352;2023-06-14T10:28:30;100844.50;;;23.97;42.18
21129;BME280;10722;51.910;8.352;2023-06-14T10:31:15;100843.97;;;23.87;42.49
21129;BME280;10722;51.910;8.352;2023-06-14T10:34:00;100836.16;;;24.33;42.20
21129;BME280;10722;51.910;8.352;2023-06-14T10:36:46;100838.25;;;24.70;41.63
21129;BME280;10722;51.910;8.352;2023-06-14T10:39:36;100819.41;;;23.85;41.83
21129;BME280;10722;51.910;8.352;2023-06-14T10:42:21;100849.84;;;23.96;42.55
21129;BME280;10722;51.910;8.352;2023-06-14T10:45:12;100853.22;;;23.49;44.04
21129;BME280;10722;51.910;8.352;2023-06-14T10:47:58;100866.88;;;23.87;44.11
21129;BME280;10722;51.910;8.352;2023-06-14T10:50:43;100872.66;;;23.98;44.13
21129;BME280;10722;51.910;8.352;2023-06-14T10:53:29;100869.13;;;23.74;44.04
21129;BME280;10722;51.910;8.352;2023-06-14T10:56:32;100847.16;;;24.21;42.99
21129;BME280;10722;51.910;8.352;2023-06-14T10:59:19;100836.53;;;24.91;41.90
21129;BME280;10722;51.910;8.352;2023-06-14T11:02:27;100812.41;;;24.31;41.74
21129;BME280;10722;51.910;8.352;2023-06-14T11:05:24;100847.16;;;24.21;43.30
21129;BME280;10722;51.910;8.352;2023-06-14T11:11:12;100846.00;;;24.53;43.20
21129;BME280;10722;51.910;8.352;2023-06-14T11:13:59;100855.56;;;24.79;42.89
21129;BME280;10722;51.910;8.352;2023-06-14T11:16:50;100819.25;;;24.13;42.40
21129;BME280;10722;51.910;8.352;2023-06-14T11:19:36;100839.13;;;23.75;43.20
21129;BME280;10722;51.910;8.352;2023-06-14T11:22:21;100847.13;;;24.22;43.35
21129;BME280;10722;51.910;8.352;2023-06-14T11:25:14;100832.66;;;24.07;43.08
21129;BME280;10722;51.910;8.352;2023-06-14T11:28:00;100838.28;;;24.92;41.88
21129;BME280;10722;51.910;8.352;2023-06-14T11:30:45;100804.84;;;24.90;41.23
21129;BME280;10722;51.910;8.352;2023-06-14T11:33:31;100823.50;;;24.87;41.86
21129;BME280;10722;51.910;8.352;2023-06-14T11:36:16;100828.13;;;24.58;42.41
21129;BME280;10722;51.910;8.352;2023-06-14T11:39:03;100821.31;;;24.05;43.41
21129;BME280;10722;51.910;8.352;2023-06-14T11:41:49;100834.19;;;25.05;42.36
21129;BME280;10722;51.910;8.352;2023-06-14T11:44:34;100814.31;;;24.95;41.95
21129;BME280;10722;51.910;8.352;2023-06-14T11:47:19;100798.38;;;24.75;42.02
21129;BME280;10722;51.910;8.352;2023-06-14T11:50:09;100793.53;;;24.64;41.67
21129;BME280;10722;51.910;8.352;2023-06-14T11:52:58;100820.59;;;24.71;42.71
21129;BME280;10722;51.910;8.352;2023-06-14T11:55:44;100819.25;;;25.26;42.21
21129;BME280;10722;51.910;8.352;2023-06-14T11:58:30;100793.41;;;24.89;41.72
21129;BME280;10722;51.910;8.352;2023-06-14T12:01:19;100783.47;;;25.16;40.75
21129;BME280;10722;51.910;8.352;2023-06-14T12:04:04;100795.69;;;26.01;40.45
21129;BME280;10722;51.910;8.352;2023-06-14T12:06:50;100739.41;;;24.93;39.47
21129;BME280;10722;51.910;8.352;2023-06-14T12:09:35;100787.78;;;24.75;41.36
21129;BME280;10722;51.910;8.352;2023-06-14T12:12:21;100761.53;;;25.13;40.28
21129;BME280;10722;51.910;8.352;2023-06-14T12:15:08;100759.94;;;25.09;39.86
21129;BME280;10722;51.910;8.352;2023-06-14T12:17:54;100756.56;;;25.27;39.39
21129;BME280;10722;51.910;8.352;2023-06-14T12:20:39;100740.31;;;25.14;39.23
21129;BME280;10722;51.910;8.352;2023-06-14T12:23:24;100750.59;;;26.02;38.76
21129;BME280;10722;51.910;8.352;2023-06-14T12:26:15;100767.88;;;26.66;38.59
21129;BME280;10722;51.910;8.352;2023-06-14T12:29:01;100756.25;;;26.69;38.22
21129;BME280;10722;51.910;8.352;2023-06-14T12:31:46;100747.63;;;26.08;39.09
21129;BME280;10722;51.910;8.352;2023-06-14T12:34:31;100760.59;;;25.14;40.34
21129;BME280;10722;51.910;8.352;2023-06-14T12:37:16;100763.38;;;24.23;41.36
21129;BME280;10722;51.910;8.352;2023-06-14T12:40:03;100787.25;;;24.45;42.17
21129;BME280;10722;51.910;8.352;2023-06-14T12:42:48;100785.09;;;24.98;41.59
21129;BME280;10722;51.910;8.352;2023-06-14T12:45:33;100792.28;;;24.51;41.94
21129;BME280;10722;51.910;8.352;2023-06-14T12:48:19;100779.44;;;24.40;41.51
21129;BME280;10722;51.910;8.352;2023-06-14T12:51:05;100802.00;;;24.94;41.38
21129;BME280;10722;51.910;8.352;2023-06-14T12:53:50;100808.06;;;25.61;40.88
21129;BME280;10722;51.910;8.352;2023-06-14T12:56:36;100768.31;;;25.61;39.53
21129;BME280;10722;51.910;8.352;2023-06-14T12:59:21;100791.16;;;25.22;40.65
21129;BME280;10722;51.910;8.352;2023-06-14T13:02:14;100788.19;;;25.91;39.76
21129;BME280;10722;51.910;8.352;2023-06-14T13:05:00;100767.88;;;25.09;39.77
21129;BME280;10722;51.910;8.352;2023-06-14T13:07:45;100777.31;;;25.16;40.69
21129;BME280;10722;51.910;8.352;2023-06-14T13:10:30;100789.53;;;25.40;40.56
21129;BME280;10722;51.910;8.352;2023-06-14T13:13:16;100780.66;;;26.20;39.83
21129;BME280;10722;51.910;8.352;2023-06-14T13:16:01;100775.66;;;26.14;39.09
21129;BME280;10722;51.910;8.352;2023-06-14T13:18:47;100751.78;;;25.15;39.13
21129;BME280;10722;51.910;8.352;2023-06-14T13:21:32;100773.50;;;25.43;39.71
21129;BME280;10722;51.910;8.352;2023-06-14T13:24:18;100762.72;;;25.87;38.98
21129;BME280;10722;51.910;8.352;2023-06-14T13:27:03;100760.25;;;25.43;39.33
21129;BME280;10722;51.910;8.352;2023-06-14T13:29:48;100776.47;;;26.16;39.57
21129;BME280;10722;51.910;8.352;2023-06-14T13:32:34;100764.19;;;25.94;39.18
21129;BME280;10722;51.910;8.352;2023-06-14T13:35:19;100761.97;;;25.24;39.58
21129;BME280;10722;51.910;8.352;2023-06-14T13:38:05;100790.78;;;25.10;41.21
21129;BME280;10722;51.910;8.352;2023-06-14T13:40:50;100794.06;;;25.37;41.03
21129;BME280;10722;51.910;8.352;2023-06-14T13:43:35;100763.72;;;25.45;40.32
21129;BME280;10722;51.910;8.352;2023-06-14T13:46:21;100762.44;;;25.34;40.20
21129;BME280;10722;51.910;8.352;2023-06-14T13:49:06;100757.91;;;25.56;39.70
21129;BME280;10722;51.910;8.352;2023-06-14T13:51:52;100766.81;;;25.35;40.17
21129;BME280;10722;51.910;8.352;2023-06-14T13:54:37;100755.13;;;24.98;40.40
21129;BME280;10722;51.910;8.352;2023-06-14T13:57:23;100779.63;;;24.81;41.42
21129;BME280;10722;51.910;8.352;2023-06-14T14:00:08;100755.53;;;24.67;40.31
21129;BME280;10722;51.910;8.352;2023-06-14T14:02:54;100752.06;;;24.19;41.46
21129;BME280;10722;51.910;8.352;2023-06-14T14:05:39;100757.63;;;24.58;40.66
21129;BME280;10722;51.910;8.352;2023-06-14T14:08:25;100769.66;;;24.88;40.98
21129;BME280;10722;51.910;8.352;2023-06-14T14:11:10;100760.44;;;24.54;40.69
21129;BME280;10722;51.910;8.352;2023-06-14T14:13:56;100754.16;;;24.11;40.95
21129;BME280;10722;51.910;8.352;2023-06-14T14:16:41;100774.97;;;23.97;41.73
21129;BME280;10722;51.910;8.352;2023-06-14T14:19:26;100795.75;;;24.06;42.62
21129;BME280;10722;51.910;8.352;2023-06-14T14:22:12;100752.94;;;23.96;41.28
21129;BME280;10722;51.910;8.352;2023-06-14T14:24:57;100798.03;;;24.15;42.83
21129;BME280;10722;51.910;8.352;2023-06-14T14:27:43;100795.56;;;24.34;42.75
21129;BME280;10722;51.910;8.352;2023-06-14T14:30:28;100793.16;;;24.51;42.32
21129;BME280;10722;51.910;8.352;2023-06-14T14:33:14;100784.25;;;24.30;41.85
21129;BME280;10722;51.910;8.352;2023-06-14T14:36:01;100778.88;;;24.32;41.60
21129;BME280;10722;51.910;8.352;2023-06-14T14:38:46;100798.31;;;24.54;42.21